Barton City, MI

2:13 PM EST on November 21, 2014 (GMT -0500)
Oscoda-Wurtsmith | Change Station
CLOSE
Current Station
Airport
Location: Oscoda,
Elevation: 633 ft
Nearby Weather Stations

Elev 633 ft 44.45 °N, 83.39 °W | Updated 19 minutes ago

Mostly Cloudy
Mostly Cloudy
28 °F
Feels Like 19 °F
N
10
Wind Variable Wind from WSW

Today
High -- | Low -- °F
--% Chance of Precip.
Yesterday
High -- | Low -- °F
Precip. -- in
7:39 AM 5:01 PM
Waning Crescent, 1% visible
Pressure 30.35 in
Visibility 10.0 miles
Clouds Scattered Clouds 3600 ft
Scattered Clouds 12000 ft
Windchill 19 °F
Dew Point 14 °F
Humidity 56%
Rainfall 0.00 in
Snow Depth Not available.
UV 1 out of 12
Pollen .10 out of 12
Air Quality Not available.
Flu Activity Not available.
METAR KOSC 211854Z AUTO 25009KT 10SM SCT036 SCT120 M02/M10 A3035 RMK AO2 T10221099

More Conditions Fewer Conditions

Pressure 30.35 in
Visibility 10.0 miles
Clouds Scattered Clouds 3600 ft
Scattered Clouds 12000 ft
Windchill 19 °F
Dew Point 14 °F
Humidity 56%
Rainfall 0.00 in
Snow Depth Not available.
UV 1 out of 12
Pollen .10 out of 12
Air Quality Not available.
Flu Activity Not available.
METAR KOSC 211854Z AUTO 25009KT 10SM SCT036 SCT120 M02/M10 A3035 RMK AO2 T10221099

More Conditions Fewer Conditions

Nowcast | as of 2:00 PM EST on November 21, 2014

At 3 PM...partly sunny. Temperature 25. Southwest winds 11 mph. At 5 PM...partly sunny. Temperature 24. Southwest winds 13 mph. At 7 PM...partly cloudy. Temperature 21. Southwest winds 11 mph.

×

10-Day Weather Forecast

Almanac

Astronomy

Nov. 21, 2014 Rise Set
Actual Time
Civil Twilight
Nautical Twilight
Astronomical Twilight
Moon
Length of Visible Light
Length of Day
Tomorrow will be .
, % of the Moon is Illuminated

Today's Extremes

State Highs State Lows

Community

WunderPhotos

Upload Photos

1,772,702 photos uploaded!

WunderBlogs® & News

Nearby

Air Quality

  Air Quality AQ Index Pollutant
Not available.

Snow Depth

Station Depth Elevation

Earthquake Activity

City Distance Mag. Time & Date
Minimum magnitude displayed is 2.5.

Coastal Water Temperatures

Place Temperature

Nearby Weather Stations